Navigator Spirit — C6WL4 — position and weather

sailwx.info

Track history (hours):
 
Tides and Currents Weather Stations Pressure Air Temp Water Temp Dewpoint Dewpoint Depression Visibility Wind Speed Wind Dir Waves Ship Positions

Navigator Spirit

Last reported at 2015-Feb-19 14:32 UTC. Time now 2015-Feb-27 22:45 UTC.
Position N 29°21' W 094°43'.
Warning: this ship's position is 8 days out of date.

Length 241 m; draft 9 m.

Type: Tanker. MMSI: 309198000.

Date/timePositionNaut miles runAvg speedWind from/ knotsBaromVisibWave heightAir tempDewpointWater temp
2015-Feb-19 14:32N 29°21' W 094°43'9 9.4
2015-Feb-19 13:33N 29°23' W 094°53'  
2015-Feb-16 13:06N 29°23' W 094°53'1 2.7
2015-Feb-16 12:33N 29°23' W 094°52'260 6.7
2015-Feb-14 21:33N 29°52' W 089°55'9 8.4
2015-Feb-14 20:31N 29°56' W 090°03'8 8.0
2015-Feb-14 19:28N 29°56' W 090°13'33 5.3
2015-Feb-14 13:20N 30°02' W 090°50'0 0.0
2015-Feb-14 12:32N 30°02' W 090°50'0 0.0
2015-Feb-14 08:32N 30°02' W 090°50'0 0.0
2015-Feb-12 08:05N 30°02' W 090°50'0 0.0
2015-Feb-12 07:32N 30°02' W 090°50'0 0.0
2015-Feb-12 06:23N 30°02' W 090°50'40 2.8
2015-Feb-11 16:12N 29°55' W 090°05'6 3.2
2015-Feb-11 14:14N 29°53' W 089°58'  
Track history (hours):
 
Tides and Currents Weather Stations Pressure Air Temp Water Temp Dewpoint Dewpoint Depression Visibility Wind Speed Wind Dir Waves Ship Positions

Navigator Spirit

Last reported at 2015-Feb-19 14:32 UTC. Time now 2015-Feb-27 22:45 UTC.
Position N 29°21' W 094°43'.
Warning: this ship's position is 8 days out of date.

Length 241 m; draft 9 m.

Type: Tanker. MMSI: 309198000.

Date/timePositionNaut miles runAvg speedWind from/ knotsBaromVisibWave heightAir tempDewpointWater temp
2015-Feb-19 14:32N 29°21' W 094°43'9 9.4
2015-Feb-19 13:33N 29°23' W 094°53'  
2015-Feb-16 13:06N 29°23' W 094°53'1 2.7
2015-Feb-16 12:33N 29°23' W 094°52'260 6.7
2015-Feb-14 21:33N 29°52' W 089°55'9 8.4
2015-Feb-14 20:31N 29°56' W 090°03'8 8.0
2015-Feb-14 19:28N 29°56' W 090°13'33 5.3
2015-Feb-14 13:20N 30°02' W 090°50'0 0.0
2015-Feb-14 12:32N 30°02' W 090°50'0 0.0
2015-Feb-14 08:32N 30°02' W 090°50'0 0.0
2015-Feb-12 08:05N 30°02' W 090°50'0 0.0
2015-Feb-12 07:32N 30°02' W 090°50'0 0.0
2015-Feb-12 06:23N 30°02' W 090°50'40 2.8
2015-Feb-11 16:12N 29°55' W 090°05'6 3.2
2015-Feb-11 14:14N 29°53' W 089°58'  

Dump ship's entire track history